Terminal Aerodrome Forecast
Issued by NWS Jacksonville, FL

Home | Current Version | Previous Version | Text Only | Print | Product List | Glossary On
Versions: 1 2 3 4 5 6 7 8 9 10 11 12 13 14 15 16
000
FTUS42 KJAX 052321
TAFSSI
TAF
KSSI 052321Z 0600/0624 10006KT 6SM -RA BR BKN100
     FM060100 19005KT P6SM SCT100 BKN200
     FM061600 19007KT P6SM SCT030 BKN250
     FM062100 15008KT P6SM VCTS SCT040CB BKN150=

USA.gov is the U.S. government's official web portal to all federal, state and local government web resources and services.